Balmorhea, TX (79718)

4:00 AM CST on December 09, 2016 (GMT -0600)
Pecos Municipal | | Change Station

Elev 2612 ft 31.38 °N, 103.51 °W | Updated 5 minutes ago

Overcast
Overcast
30 °F
Feels Like 23 °F
N
6
Wind Variable Wind from East

Today
High -- | Low -- °F
--% Chance of Precip.
Yesterday
High -- | Low -- °F
Precip. -- in
Pressure 30.53 in
Visibility 10.0 miles
Clouds Scattered Clouds 1200 ft
Overcast 3300 ft
Windchill 23 °F
Dew Point 25 °F
Humidity 85%
Rainfall 0.00 in
Snow Depth Not available.
7:41 AM 5:53 PM
Waxing Gibbous, 72% visible
METAR KPEQ 090955Z AUTO 10005KT 10SM SCT012 OVC033 M01/M04 A3053 RMK AO2 T10141037
Pressure 30.53 in
Visibility 10.0 miles
Clouds Scattered Clouds 1200 ft
Overcast 3300 ft
Windchill 23 °F
Dew Point 25 °F
Humidity 85%
Rainfall 0.00 in
Snow Depth Not available.
7:41 AM 5:53 PM
Waxing Gibbous, 72% visible
METAR KPEQ 090955Z AUTO 10005KT 10SM SCT012 OVC033 M01/M04 A3053 RMK AO2 T10141037

10-Day Weather Forecast

Almanac

Astronomy

Dec. 09, 2016 Rise Set
Actual Time
Civil Twilight
Nautical Twilight
Astronomical Twilight
Moon
Length of Visible Light
Length of Day
Tomorrow will be .
, % of the Moon is Illuminated

Today's Extremes

State Highs State Lows

Community

WunderPhotos

Upload Photos

1,956,378 photos uploaded!

WunderBlog® & News

Nearby

Air Quality

  Air Quality AQ Index Pollutant
Not available.

Snow Depth

Station Depth Elevation

Earthquake Activity

City Distance Mag. Time & Date
Minimum magnitude displayed is 2.5.

Coastal Water Temperatures

Place Temperature

Stations

Nearby Weather Stations

Station Location Temp. Windchill Dew Point Humidity Wind Precip. Elev Updated Type
                   

Watches & Warnings

There are currently no watches in effect.